Time,TemperatureF,DewpointF,PressureIn,WindDirection,WindDirectionDegrees,WindSpeedMPH,WindSpeedGustMPH,Humidity,HourlyPrecipIn,Conditions,Clouds,dailyrainin,SoftwareType,DateUTC
2013-02-10 00:01:00,16.0,15.0,-100.00,WNW,302,0.0,1.0,98,0.03,,,-99.99,,2013-02-10 07:01:00,
2013-02-10 00:11:00,16.0,15.0,-100.00,WNW,302,0.0,0.0,97,0.03,,,-99.99,,2013-02-10 07:11:00,
2013-02-10 00:21:00,16.0,15.0,-100.00,NW,304,0.0,0.0,97,0.03,,,-99.99,,2013-02-10 07:21:00,
2013-02-10 00:31:00,16.0,15.0,-100.00,NW,304,0.0,0.0,97,0.03,,,-99.99,,2013-02-10 07:31:00,
2013-02-10 00:41:00,16.0,15.0,-100.00,WNW,302,0.0,0.0,97,0.03,,,-99.99,,2013-02-10 07:41:00,
2013-02-10 00:51:00,16.0,15.0,-100.00,WNW,299,0.0,1.0,97,0.03,,,-99.99,,2013-02-10 07:51:00,
2013-02-10 01:01:00,16.0,15.0,-100.00,WNW,298,0.0,1.0,97,0.07,,,-99.99,,2013-02-10 08:01:00,
2013-02-10 01:11:00,16.0,15.0,-100.00,WNW,298,0.0,1.0,97,0.07,,,-99.99,,2013-02-10 08:11:00,
2013-02-10 01:21:00,15.0,15.0,-100.00,WNW,292,0.0,1.0,97,0.04,,,-99.99,,2013-02-10 08:21:00,
2013-02-10 01:32:00,15.0,15.0,-100.00,WNW,296,0.0,1.0,97,0.04,,,-99.99,,2013-02-10 08:32:00,
2013-02-10 01:43:00,16.0,15.0,-100.00,WNW,298,0.0,1.0,97,0.03,,,-99.99,,2013-02-10 08:43:00,
2013-02-10 01:52:00,16.0,15.0,-100.00,WNW,299,0.0,1.0,97,0.03,,,-99.99,,2013-02-10 08:52:00,
2013-02-10 02:02:00,16.0,15.0,-100.00,WNW,299,0.0,1.0,97,0.03,,,-99.99,,2013-02-10 09:02:00,
2013-02-10 02:11:00,15.0,15.0,-100.00,WNW,298,0.0,1.0,97,0.01,,,-99.99,,2013-02-10 09:11:00,
2013-02-10 02:21:00,15.0,15.0,-100.00,WNW,298,0.0,1.0,97,0.03,,,-99.99,,2013-02-10 09:21:00,
2013-02-10 02:31:00,15.0,15.0,-100.00,WNW,296,0.0,1.0,97,0.03,,,-99.99,,2013-02-10 09:31:00,
2013-02-10 02:41:00,15.0,15.0,-100.00,WNW,292,0.0,1.0,97,0.03,,,-99.99,,2013-02-10 09:41:00,
2013-02-10 02:51:00,15.0,15.0,-100.00,WNW,292,0.0,1.0,97,0.04,,,-99.99,,2013-02-10 09:51:00,
2013-02-10 03:01:00,15.0,15.0,-100.00,WNW,295,0.0,1.0,97,0.03,,,-99.99,,2013-02-10 10:01:00,
2013-02-10 03:11:00,15.0,15.0,-100.00,WNW,298,0.0,1.0,97,0.04,,,-99.99,,2013-02-10 10:11:00,
2013-02-10 03:21:00,15.0,15.0,-100.00,WNW,296,0.0,1.0,97,0.03,,,-99.99,,2013-02-10 10:21:00,
2013-02-10 03:31:00,15.0,15.0,-100.00,WNW,296,0.0,1.0,97,0.06,,,-99.99,,2013-02-10 10:31:00,
2013-02-10 03:41:00,15.0,15.0,-100.00,WNW,296,0.0,1.0,97,0.04,,,-99.99,,2013-02-10 10:41:00,
2013-02-10 03:51:00,15.0,15.0,-100.00,WNW,294,0.0,1.0,97,0.04,,,-99.99,,2013-02-10 10:51:00,
2013-02-10 04:01:00,15.0,15.0,-100.00,WNW,292,0.0,1.0,97,0.03,,,-99.99,,2013-02-10 11:01:00,
2013-02-10 04:11:00,15.0,15.0,-100.00,WNW,294,0.0,1.0,97,0.04,,,-99.99,,2013-02-10 11:11:00,
2013-02-10 04:21:00,15.0,15.0,-100.00,WNW,295,0.0,1.0,97,0.04,,,-99.99,,2013-02-10 11:21:00,
2013-02-10 04:32:00,15.0,15.0,-100.00,WNW,295,0.0,1.0,97,0.04,,,-99.99,,2013-02-10 11:32:00,
2013-02-10 04:42:00,15.0,15.0,-100.00,WNW,296,0.0,1.0,97,0.04,,,-99.99,,2013-02-10 11:42:00,
2013-02-10 04:52:00,15.0,14.0,-100.00,WNW,302,0.0,1.0,97,0.01,,,-99.99,,2013-02-10 11:52:00,
2013-02-10 05:01:00,15.0,14.0,-100.00,NW,305,0.0,0.0,97,0.03,,,-99.99,,2013-02-10 12:01:00,
2013-02-10 05:12:00,15.0,14.0,-100.00,NW,315,0.0,0.0,97,0.08,,,-99.99,,2013-02-10 12:12:00,
2013-02-10 05:21:00,15.0,14.0,-100.00,NW,308,0.0,0.0,97,0.03,,,-99.99,,2013-02-10 12:21:00,
2013-02-10 05:32:00,15.0,14.0,-100.00,NW,305,0.0,1.0,97,0.01,,,-99.99,,2013-02-10 12:32:00,
2013-02-10 05:41:00,14.0,14.0,-100.00,WNW,302,0.0,1.0,97,0.01,,,-99.99,,2013-02-10 12:41:00,
2013-02-10 05:52:00,14.0,14.0,-100.00,NW,304,0.0,0.0,97,0.01,,,-99.99,,2013-02-10 12:52:00,
2013-02-10 06:02:00,14.0,13.0,-100.00,WNW,302,0.0,1.0,97,0.01,,,-99.99,,2013-02-10 13:02:00,
2013-02-10 06:11:00,14.0,13.0,-100.00,WNW,301,0.0,1.0,97,0.01,,,-99.99,,2013-02-10 13:11:00,
2013-02-10 06:21:00,14.0,13.0,-100.00,WNW,302,0.0,1.0,96,0.01,,,-99.99,,2013-02-10 13:21:00,
2013-02-10 06:31:00,14.0,13.0,-100.00,WNW,302,0.0,1.0,96,0.03,,,-99.99,,2013-02-10 13:31:00,
2013-02-10 06:41:00,14.0,13.0,-100.00,WNW,301,0.0,1.0,96,0.03,,,-99.99,,2013-02-10 13:41:00,
2013-02-10 06:51:00,14.0,13.0,-100.00,NW,304,0.0,0.0,96,0.07,,,-99.99,,2013-02-10 13:51:00,
2013-02-10 07:02:00,14.0,13.0,-100.00,WNW,298,0.0,1.0,96,0.01,,,-99.99,,2013-02-10 14:02:00,
2013-02-10 07:11:00,14.0,13.0,-100.00,WNW,299,0.0,1.0,96,0.01,,,-99.99,,2013-02-10 14:11:00,
2013-02-10 07:21:00,14.0,13.0,-100.00,WNW,298,0.0,1.0,96,0.01,,,-99.99,,2013-02-10 14:21:00,
2013-02-10 07:32:00,14.0,13.0,-100.00,WNW,295,0.0,1.0,96,0.00,,,-99.99,,2013-02-10 14:32:00,
2013-02-10 07:41:00,14.0,13.0,-100.00,WNW,294,0.0,1.0,96,0.01,,,-99.99,,2013-02-10 14:41:00,
2013-02-10 07:52:00,14.0,13.0,-100.00,WNW,294,0.0,1.0,96,0.04,,,-99.99,,2013-02-10 14:52:00,
2013-02-10 08:01:00,14.0,13.0,-100.00,WNW,294,0.0,1.0,96,0.03,,,-99.99,,2013-02-10 15:01:00,
2013-02-10 08:11:00,14.0,13.0,-100.00,WNW,292,0.0,1.0,95,0.00,,,-99.99,,2013-02-10 15:11:00,
2013-02-10 08:21:00,14.0,13.0,-100.00,WNW,294,0.0,1.0,95,0.00,,,-99.99,,2013-02-10 15:21:00,
2013-02-10 08:32:00,14.0,12.0,-100.00,WNW,292,0.0,1.0,94,0.00,,,-99.99,,2013-02-10 15:32:00,
2013-02-10 08:42:00,14.0,13.0,-100.00,WNW,294,0.0,1.0,93,0.00,,,-99.99,,2013-02-10 15:42:00,
2013-02-10 08:52:00,14.0,13.0,-100.00,WNW,294,0.0,1.0,92,0.00,,,-99.99,,2013-02-10 15:52:00,
2013-02-10 09:02:00,15.0,13.0,-100.00,WNW,301,0.0,1.0,92,0.00,,,-99.99,,2013-02-10 16:02:00,
2013-02-10 09:11:00,15.0,13.0,-100.00,NW,304,0.0,1.0,91,0.00,,,-99.99,,2013-02-10 16:11:00,
2013-02-10 09:21:00,14.0,12.0,-100.00,NW,305,0.0,0.0,90,0.00,,,-99.99,,2013-02-10 16:21:00,
2013-02-10 09:32:00,14.0,12.0,-100.00,NW,309,0.0,0.0,89,0.00,,,-99.99,,2013-02-10 16:32:00,
2013-02-10 09:42:00,15.0,12.0,-100.00,NW,312,0.0,0.0,88,0.00,,,-99.99,,2013-02-10 16:42:00,
2013-02-10 09:52:00,15.0,11.0,-100.00,NW,308,0.0,1.0,86,0.00,,,-99.99,,2013-02-10 16:52:00,
2013-02-10 10:01:00,15.0,11.0,-100.00,WNW,301,0.0,0.0,86,0.00,,,-99.99,,2013-02-10 17:01:00,
2013-02-10 10:11:00,15.0,12.0,-100.00,WNW,299,0.0,0.0,85,0.03,,,-99.99,,2013-02-10 17:11:00,
2013-02-10 10:21:00,15.0,12.0,-100.00,WNW,296,0.0,0.0,85,0.01,,,-99.99,,2013-02-10 17:21:00,
2013-02-10 10:32:00,15.0,12.0,-100.00,WNW,302,0.0,1.0,88,0.01,,,-99.99,,2013-02-10 17:32:00,
2013-02-10 10:42:00,15.0,12.0,-100.00,WNW,301,0.0,1.0,86,0.01,,,-99.99,,2013-02-10 17:42:00,
2013-02-10 10:52:00,15.0,11.0,-100.00,WNW,301,8.0,17.0,85,0.00,,,-99.99,,2013-02-10 17:52:00,
2013-02-10 11:02:00,15.0,12.0,-100.00,WNW,301,12.0,15.0,88,0.01,,,-99.99,,2013-02-10 18:02:00,
2013-02-10 11:11:00,15.0,13.0,-100.00,NW,305,11.0,15.0,90,0.03,,,-99.99,,2013-02-10 18:11:00,
2013-02-10 11:21:00,15.0,13.0,-100.00,NW,308,12.0,17.0,93,0.10,,,-99.99,,2013-02-10 18:21:00,
2013-02-10 11:32:00,14.0,13.0,-100.00,NW,319,13.0,17.0,94,0.07,,,-99.99,,2013-02-10 18:32:00,
2013-02-10 11:42:00,14.0,13.0,-100.00,NW,322,11.0,16.0,94,0.11,,,-99.99,,2013-02-10 18:42:00,
2013-02-10 11:52:00,15.0,13.0,-100.00,NW,319,9.0,12.0,94,0.10,,,-99.99,,2013-02-10 18:52:00,
2013-02-10 12:01:00,14.0,13.0,-100.00,NW,313,11.0,15.0,93,0.04,,,-99.99,,2013-02-10 19:01:00,
2013-02-10 12:11:00,15.0,13.0,-100.00,NW,323,10.0,14.0,94,0.14,,,-99.99,,2013-02-10 19:11:00,
2013-02-10 12:21:00,14.0,12.0,-100.00,North,1,10.0,14.0,93,0.01,,,-99.99,,2013-02-10 19:21:00,
2013-02-10 12:32:00,14.0,12.0,-100.00,North,356,9.0,12.0,91,0.01,,,-99.99,,2013-02-10 19:32:00,
2013-02-10 12:42:00,13.0,11.0,-100.00,NNW,344,10.0,14.0,91,0.01,,,-99.99,,2013-02-10 19:42:00,
2013-02-10 12:51:00,14.0,12.0,-100.00,North,349,7.0,12.0,91,0.01,,,-99.99,,2013-02-10 19:51:00,
2013-02-10 13:02:00,14.0,12.0,-100.00,North,349,9.0,12.0,92,0.03,,,-99.99,,2013-02-10 20:02:00,
2013-02-10 13:11:00,14.0,12.0,-100.00,North,356,7.0,11.0,92,0.03,,,-99.99,,2013-02-10 20:11:00,
2013-02-10 13:21:00,15.0,13.0,-100.00,North,357,7.0,12.0,93,0.03,,,-99.99,,2013-02-10 20:21:00,
2013-02-10 13:32:00,15.0,13.0,-100.00,NNW,330,4.0,9.0,92,0.00,,,-99.99,,2013-02-10 20:32:00,
2013-02-10 13:42:00,15.0,14.0,-100.00,NW,318,7.0,10.0,93,0.01,,,-99.99,,2013-02-10 20:42:00,
2013-02-10 13:52:00,15.0,13.0,-100.00,NW,326,7.0,10.0,91,0.01,,,-99.99,,2013-02-10 20:52:00,
2013-02-10 14:02:00,15.0,13.0,-100.00,NW,312,7.0,10.0,91,0.00,,,-99.99,,2013-02-10 21:02:00,
2013-02-10 14:11:00,14.0,13.0,-100.00,NW,322,7.0,10.0,92,0.00,,,-99.99,,2013-02-10 21:11:00,
2013-02-10 14:21:00,15.0,13.0,-100.00,NW,319,8.0,10.0,93,0.00,,,-99.99,,2013-02-10 21:21:00,
2013-02-10 14:32:00,15.0,13.0,-100.00,NW,320,8.0,11.0,92,0.00,,,-99.99,,2013-02-10 21:32:00,
2013-02-10 14:42:00,15.0,13.0,-100.00,NW,320,8.0,11.0,91,0.00,,,-99.99,,2013-02-10 21:42:00,
2013-02-10 14:51:00,15.0,12.0,-100.00,NW,316,9.0,13.0,90,0.00,,,-99.99,,2013-02-10 21:51:00,
2013-02-10 15:02:00,14.0,11.0,-100.00,NW,315,9.0,12.0,89,0.00,,,-99.99,,2013-02-10 22:02:00,
2013-02-10 15:11:00,14.0,11.0,-100.00,NW,308,7.0,10.0,88,0.00,,,-99.99,,2013-02-10 22:11:00,
2013-02-10 15:21:00,15.0,11.0,-100.00,NW,309,8.0,11.0,87,0.00,,,-99.99,,2013-02-10 22:21:00,
2013-02-10 15:32:00,14.0,11.0,-100.00,NW,320,9.0,12.0,88,0.00,,,-99.99,,2013-02-10 22:32:00,
2013-02-10 15:42:00,14.0,11.0,-100.00,NW,315,9.0,11.0,87,0.00,,,-99.99,,2013-02-10 22:42:00,
2013-02-10 15:52:00,14.0,11.0,-100.00,NW,316,9.0,12.0,89,0.00,,,-99.99,,2013-02-10 22:52:00,
2013-02-10 16:02:00,14.0,11.0,-100.00,NW,311,8.0,10.0,89,0.00,,,-99.99,,2013-02-10 23:02:00,
2013-02-10 16:11:00,14.0,12.0,-100.00,NW,311,7.0,11.0,91,0.01,,,-99.99,,2013-02-10 23:11:00,
2013-02-10 16:22:00,14.0,11.0,-100.00,NW,308,9.0,12.0,87,0.01,,,-99.99,,2013-02-10 23:22:00,
2013-02-10 16:32:00,14.0,11.0,-100.00,WNW,299,9.0,12.0,88,0.00,,,-99.99,,2013-02-10 23:32:00,
2013-02-10 16:42:00,14.0,11.0,-100.00,WNW,289,9.0,12.0,87,0.00,,,-99.99,,2013-02-10 23:42:00,
2013-02-10 16:52:00,13.0,10.0,-100.00,WNW,288,10.0,13.0,88,0.00,,,-99.99,,2013-02-10 23:52:00,
2013-02-10 17:02:00,13.0,9.0,-100.00,WNW,284,9.0,12.0,85,0.00,,,-99.99,,2013-02-11 00:02:00,
2013-02-10 17:11:00,12.0,8.0,-100.00,WNW,285,9.0,11.0,85,0.00,,,-99.99,,2013-02-11 00:11:00,
2013-02-10 17:22:00,11.0,8.0,-100.00,WNW,287,9.0,12.0,86,0.00,,,-99.99,,2013-02-11 00:22:00,
2013-02-10 17:32:00,11.0,8.0,-100.00,WNW,282,9.0,12.0,88,0.00,,,-99.99,,2013-02-11 00:32:00,
2013-02-10 17:42:00,11.0,8.0,-100.00,West,278,9.0,14.0,88,0.00,,,-99.99,,2013-02-11 00:42:00,
2013-02-10 17:51:00,11.0,8.0,-100.00,West,281,9.0,12.0,89,0.00,,,-99.99,,2013-02-11 00:51:00,
2013-02-10 18:01:00,10.0,9.0,-100.00,West,281,11.0,17.0,93,0.00,,,-99.99,,2013-02-11 01:01:00,
2013-02-10 18:11:00,10.0,8.0,-100.00,West,274,12.0,16.0,93,0.00,,,-99.99,,2013-02-11 01:11:00,
2013-02-10 18:21:00,10.0,8.0,-100.00,West,278,9.0,13.0,91,0.00,,,-99.99,,2013-02-11 01:21:00,
2013-02-10 18:32:00,9.0,7.0,-100.00,WNW,289,7.0,11.0,90,0.00,,,-99.99,,2013-02-11 01:32:00,
2013-02-10 18:41:00,9.0,7.0,-100.00,WNW,301,8.0,13.0,93,0.00,,,-99.99,,2013-02-11 01:41:00,
2013-02-10 18:52:00,9.0,8.0,-100.00,WNW,301,11.0,15.0,94,0.00,,,-99.99,,2013-02-11 01:52:00,
2013-02-10 19:01:00,9.0,8.0,-100.00,WNW,287,12.0,17.0,95,0.00,,,-99.99,,2013-02-11 02:01:00,
2013-02-10 19:11:00,9.0,8.0,-100.00,WNW,287,11.0,16.0,95,0.00,,,-99.99,,2013-02-11 02:11:00,
2013-02-10 19:21:00,9.0,7.0,-100.00,WNW,289,12.0,17.0,94,0.00,,,-99.99,,2013-02-11 02:21:00,
2013-02-10 19:31:00,8.0,7.0,-100.00,WNW,289,13.0,17.0,94,0.00,,,-99.99,,2013-02-11 02:31:00,
2013-02-10 19:42:00,8.0,6.0,-100.00,WNW,285,13.0,17.0,92,0.00,,,-99.99,,2013-02-11 02:42:00,
2013-02-10 19:52:00,8.0,6.0,-100.00,WNW,285,13.0,17.0,91,0.00,,,-99.99,,2013-02-11 02:52:00,
2013-02-10 20:02:00,8.0,5.0,-100.00,WNW,294,11.0,15.0,88,0.00,,,-99.99,,2013-02-11 03:02:00,
2013-02-10 20:11:00,7.0,5.0,-100.00,NW,309,11.0,16.0,88,0.00,,,-99.99,,2013-02-11 03:11:00,
2013-02-10 20:21:00,8.0,4.0,-100.00,WNW,285,10.0,14.0,85,0.00,,,-99.99,,2013-02-11 03:21:00,
2013-02-10 20:31:00,7.0,4.0,-100.00,WNW,292,7.0,11.0,84,0.00,,,-99.99,,2013-02-11 03:31:00,
2013-02-10 20:42:00,7.0,3.0,-100.00,WNW,291,7.0,11.0,84,0.00,,,-99.99,,2013-02-11 03:42:00,
2013-02-10 20:52:00,8.0,3.0,-100.00,WSW,258,9.0,12.0,80,0.00,,,-99.99,,2013-02-11 03:52:00,
2013-02-10 21:01:00,7.0,2.0,-100.00,West,267,7.0,11.0,79,0.00,,,-99.99,,2013-02-11 04:01:00,
2013-02-10 21:11:00,7.0,2.0,-100.00,WSW,250,9.0,13.0,80,0.00,,,-99.99,,2013-02-11 04:11:00,
2013-02-10 21:21:00,6.0,2.0,-100.00,West,261,8.0,12.0,79,0.00,,,-99.99,,2013-02-11 04:21:00,
2013-02-10 21:31:00,6.0,0.0,-100.00,WSW,257,10.0,13.0,76,0.00,,,-99.99,,2013-02-11 04:31:00,
2013-02-10 21:42:00,8.0,2.0,-100.00,WSW,254,12.0,16.0,75,0.00,,,-99.99,,2013-02-11 04:42:00,
2013-02-10 21:51:00,8.0,1.0,-100.00,WSW,254,12.0,17.0,73,0.00,,,-99.99,,2013-02-11 04:51:00,
2013-02-10 22:01:00,7.0,0.0,-100.00,West,260,10.0,12.0,73,0.00,,,-99.99,,2013-02-11 05:01:00,
2013-02-10 22:11:00,6.0,0.0,-100.00,West,263,9.0,12.0,73,0.00,,,-99.99,,2013-02-11 05:11:00,
2013-02-10 22:22:00,6.0,-1.0,-100.00,West,261,11.0,13.0,74,0.00,,,-99.99,,2013-02-11 05:22:00,
2013-02-10 22:31:00,5.0,-1.0,-100.00,West,261,10.0,13.0,75,0.00,,,-99.99,,2013-02-11 05:31:00,
2013-02-10 22:42:00,6.0,0.0,-100.00,West,268,9.0,12.0,73,0.00,,,-99.99,,2013-02-11 05:42:00,
2013-02-10 22:52:00,6.0,-1.0,-100.00,West,274,9.0,12.0,71,0.00,,,-99.99,,2013-02-11 05:52:00,
2013-02-10 23:02:00,5.0,-1.0,-100.00,WNW,294,7.0,11.0,74,0.00,,,-99.99,,2013-02-11 06:02:00,
2013-02-10 23:11:00,5.0,-2.0,-100.00,WSW,248,9.0,12.0,73,0.00,,,-99.99,,2013-02-11 06:11:00,
2013-02-10 23:21:00,5.0,-1.0,-100.00,WSW,240,9.0,12.0,74,0.00,,,-99.99,,2013-02-11 06:21:00,
2013-02-10 23:32:00,6.0,-2.0,-100.00,WSW,239,7.0,10.0,70,0.00,,,-99.99,,2013-02-11 06:32:00,
2013-02-10 23:42:00,7.0,-2.0,-100.00,SW,236,9.0,12.0,68,0.00,,,-99.99,,2013-02-11 06:42:00,
2013-02-10 23:51:00,6.0,-3.0,-100.00,SW,233,11.0,13.0,67,0.00,,,-99.99,,2013-02-11 06:51:00,